Time;durP1;ratioP1;P1;durP2;ratioP2;P2;SDS_P1;SDS_P2;PMS_P1;PMS_P2;Temp;Humidity;BMP_temperature;BMP_pressure;BME280_temperature;BME280_humidity;BME280_pressure;Samples;Min_cycle;Max_cycle;Signal;HPM_P1;HPM_P2
2023/05/23 00:03:01;;;;;;;5.68;2.75;;;15.60;99.90;;;;;;10370252;28;20209;-76
2023/05/23 00:08:22;;;;;;;6.63;3.72;;;15.50;99.90;;;;;;10378172;28;20210;-75
2023/05/23 00:13:44;;;;;;;6.80;3.42;;;15.50;1.00;;;;;;10443731;28;20229;-76
2023/05/23 00:19:05;;;;;;;5.85;3.85;;;15.50;1.00;;;;;;10436661;28;20200;-75
2023/05/23 00:24:26;;;;;;;6.78;4.15;;;15.40;1.00;;;;;;10443738;28;20198;-76
2023/05/23 00:29:47;;;;;;;4.72;4.00;;;15.30;1.00;;;;;;10432779;28;20207;-75
2023/05/23 00:35:08;;;;;;;6.97;4.28;;;15.30;1.00;;;;;;10374615;28;20197;-75
2023/05/23 00:40:30;;;;;;;5.82;4.30;;;15.20;1.00;;;;;;10377013;28;20208;-77
2023/05/23 00:45:51;;;;;;;6.35;4.40;;;15.20;1.00;;;;;;10394992;28;20195;-76
2023/05/23 00:51:12;;;;;;;6.47;4.20;;;15.00;1.00;;;;;;10372226;28;20224;-78
2023/05/23 00:56:35;;;;;;;7.75;4.72;;;14.90;99.90;;;;;;10360596;28;20201;-76
2023/05/23 01:01:57;;;;;;;6.43;4.40;;;14.90;99.90;;;;;;10369394;28;20208;-75
2023/05/23 01:07:17;;;;;;;8.85;4.45;;;14.70;99.90;;;;;;10400227;28;20246;-76
2023/05/23 01:12:45;;;;;;;7.72;4.72;;;14.70;99.90;;;;;;10453711;28;20545;-77
2023/05/23 01:18:16;;;;;;;6.78;4.63;;;14.60;99.90;;;;;;10433944;28;20282;-77
2023/05/23 01:23:51;;;;;;;7.30;4.72;;;14.50;99.90;;;;;;10440799;28;20265;-76
2023/05/23 01:29:30;;;;;;;7.75;5.15;;;14.50;99.90;;;;;;10433709;28;20199;-76
2023/05/23 01:34:56;;;;;;;7.90;5.32;;;14.40;1.00;;;;;;10374709;28;20237;-77
2023/05/23 01:40:17;;;;;;;9.77;5.22;;;14.30;1.00;;;;;;10358048;28;20208;-77
2023/05/23 01:45:38;;;;;;;8.23;4.93;;;14.30;1.00;;;;;;10397998;28;20417;-75
2023/05/23 01:51:01;;;;;;;7.00;5.10;;;14.10;1.00;;;;;;10358910;28;20219;-78
2023/05/23 01:56:22;;;;;;;12.13;4.93;;;14.10;1.00;;;;;;10374508;28;20283;-78
2023/05/23 02:01:43;;;;;;;10.77;4.95;;;14.00;1.00;;;;;;10389041;28;20193;-77
2023/05/23 02:07:06;;;;;;;7.20;4.68;;;14.00;1.00;;;;;;10389215;28;20621;-77
2023/05/23 02:12:27;;;;;;;5.85;4.50;;;13.90;1.00;;;;;;10370574;28;20522;-76
2023/05/23 02:17:48;;;;;;;7.50;5.07;;;13.90;1.00;;;;;;10441249;28;20222;-75
2023/05/23 02:23:09;;;;;;;6.55;5.00;;;13.80;1.00;;;;;;10440322;28;20202;-76
2023/05/23 02:28:31;;;;;;;7.95;4.60;;;13.70;41.60;;;;;;10444141;28;20258;-79
2023/05/23 02:33:52;;;;;;;7.45;4.53;;;13.80;49.80;;;;;;10402605;28;20413;-77
2023/05/23 02:39:13;;;;;;;8.70;5.40;;;13.70;99.90;;;;;;10370735;28;20527;-78
2023/05/23 02:44:35;;;;;;;9.45;5.03;;;13.70;99.90;;;;;;10390161;28;20204;-77
2023/05/23 02:49:56;;;;;;;8.07;4.80;;;13.60;1.00;;;;;;10368846;28;20234;-76
2023/05/23 02:55:18;;;;;;;8.52;5.30;;;13.60;99.90;;;;;;10367275;28;20603;-77
2023/05/23 03:00:42;;;;;;;7.82;5.05;;;13.60;99.90;;;;;;10368370;28;20238;-77
2023/05/23 03:06:05;;;;;;;10.60;5.03;;;13.60;1.00;;;;;;10379126;28;20239;-75
2023/05/23 03:11:27;;;;;;;7.18;4.95;;;13.60;1.00;;;;;;10379251;28;20217;-78
2023/05/23 03:16:49;;;;;;;7.70;5.65;;;13.60;1.00;;;;;;10436476;28;20576;-79
2023/05/23 03:22:10;;;;;;;8.43;5.65;;;13.70;1.00;;;;;;10409010;28;20465;-78
2023/05/23 03:27:31;;;;;;;10.57;5.25;;;13.80;99.90;;;;;;10435363;28;20196;-78
2023/05/23 03:32:53;;;;;;;8.20;5.18;;;13.80;1.00;;;;;;10385180;28;20547;-79
2023/05/23 03:38:14;;;;;;;9.70;6.15;;;13.80;1.00;;;;;;10388972;28;20198;-78
2023/05/23 03:43:35;;;;;;;14.80;5.78;;;13.90;1.00;;;;;;10390952;28;20210;-78
2023/05/23 03:48:56;;;;;;;7.38;5.05;;;14.00;99.90;;;;;;10394892;28;20192;-78
2023/05/23 03:54:17;;;;;;;9.13;4.93;;;14.00;99.90;;;;;;10371372;28;20236;-78
2023/05/23 03:59:39;;;;;;;9.98;5.05;;;14.10;1.00;;;;;;10380548;28;20569;-78
2023/05/23 04:05:04;;;;;;;7.78;4.93;;;14.20;99.90;;;;;;10407048;28;20279;-76
2023/05/23 04:10:25;;;;;;;9.55;5.20;;;14.40;99.90;;;;;;10407537;28;20215;-77
2023/05/23 04:15:47;;;;;;;6.95;4.40;;;14.50;99.90;;;;;;10435052;28;20220;-76
2023/05/23 04:21:10;;;;;;;8.38;4.60;;;14.60;99.90;;;;;;10433943;28;20195;-77
2023/05/23 04:26:39;;;;;;;6.55;4.50;;;14.80;31.10;;;;;;10432011;28;20219;-78
2023/05/23 04:32:02;;;;;;;6.85;4.72;;;14.90;93.90;;;;;;10410557;28;20529;-78
2023/05/23 04:37:24;;;;;;;6.90;4.05;;;15.00;8.10;;;;;;10391454;28;20206;-77
2023/05/23 04:42:47;;;;;;;6.45;4.90;;;15.20;1.00;;;;;;10390930;28;20254;-76
2023/05/23 04:48:26;;;;;;;10.90;6.18;;;15.30;1.00;;;;;;10393886;28;20196;-77
2023/05/23 04:53:49;;;;;;;12.20;6.65;;;15.30;1.00;;;;;;10397731;28;20268;-76
2023/05/23 04:59:12;;;;;;;11.55;5.57;;;15.40;1.00;;;;;;10364083;28;20204;-76
2023/05/23 05:04:33;;;;;;;7.43;4.57;;;15.50;1.00;;;;;;10387926;28;20534;-78
2023/05/23 05:09:54;;;;;;;9.10;4.28;;;15.60;1.00;;;;;;10413368;28;20275;-78
2023/05/23 05:15:18;;;;;;;6.18;4.18;;;15.70;1.00;;;;;;10401181;28;20498;-77
2023/05/23 05:20:42;;;;;;;6.20;3.75;;;15.80;1.00;;;;;;10410949;28;20203;-75
2023/05/23 05:26:04;;;;;;;7.93;4.85;;;16.10;99.90;;;;;;10430547;28;20279;-77
2023/05/23 05:31:25;;;;;;;6.05;3.67;;;16.10;99.90;;;;;;10423833;28;20221;-77
2023/05/23 05:36:47;;;;;;;7.18;4.00;;;16.30;99.90;;;;;;10367879;28;20283;-78
2023/05/23 05:42:10;;;;;;;8.68;3.97;;;16.60;99.90;;;;;;10374583;28;20233;-79
2023/05/23 05:47:32;;;;;;;9.73;4.05;;;16.90;83.10;;;;;;10357183;28;20224;-78
2023/05/23 05:52:53;;;;;;;12.90;4.80;;;17.20;1.00;;;;;;10387238;28;20233;-76
2023/05/23 05:58:14;;;;;;;8.75;4.00;;;17.60;1.00;;;;;;10356259;28;20202;-77
2023/05/23 06:03:47;;;;;;;7.22;4.32;;;17.90;1.00;;;;;;10377174;28;20240;-78
2023/05/23 06:09:09;;;;;;;9.20;4.30;;;18.20;1.00;;;;;;10356539;28;20197;-77
2023/05/23 06:14:30;;;;;;;7.13;4.07;;;18.30;1.00;;;;;;10392967;28;20259;-78
2023/05/23 06:19:52;;;;;;;4.28;3.50;;;18.60;1.00;;;;;;10454000;28;20220;-80
2023/05/23 06:25:13;;;;;;;5.43;4.47;;;19.00;1.00;;;;;;10431109;28;20211;-79
2023/05/23 06:30:36;;;;;;;5.38;3.83;;;19.30;1.00;;;;;;10421647;28;20228;-79
2023/05/23 06:36:00;;;;;;;5.75;3.88;;;19.40;1.00;;;;;;10369315;28;20236;-78
2023/05/23 06:41:24;;;;;;;5.75;3.35;;;19.50;1.00;;;;;;10395898;28;20440;-79
2023/05/23 06:46:46;;;;;;;5.07;3.58;;;19.70;1.00;;;;;;10370141;28;20538;-79
2023/05/23 06:52:08;;;;;;;7.03;4.18;;;20.10;1.00;;;;;;10384427;28;20220;-78
2023/05/23 06:57:29;;;;;;;7.07;3.55;;;20.60;1.00;;;;;;10322261;28;20245;-74
2023/05/23 07:02:50;;;;;;;6.20;3.35;;;20.90;1.00;;;;;;10421720;28;20220;-77
2023/05/23 07:08:14;;;;;;;11.50;4.68;;;21.20;1.00;;;;;;10401206;28;20240;-74
2023/05/23 07:13:47;;;;;;;6.28;3.50;;;21.30;1.00;;;;;;10393002;28;20229;-77
2023/05/23 07:19:15;;;;;;;13.18;3.60;;;21.60;99.90;;;;;;10383785;28;20193;-77
2023/05/23 07:24:43;;;;;;;5.70;3.58;;;21.80;99.90;;;;;;10427673;28;20205;-80
2023/05/23 07:30:05;;;;;;;5.55;3.38;;;21.70;99.90;;;;;;10396163;28;20189;-77
2023/05/23 07:35:26;;;;;;;3.90;3.35;;;21.70;99.90;;;;;;10366987;28;20225;-76
2023/05/23 07:40:48;;;;;;;10.35;3.20;;;21.80;99.90;;;;;;10376283;28;20283;-77
2023/05/23 07:46:13;;;;;;;5.72;3.30;;;21.90;99.90;;;;;;10434140;28;20196;-78
2023/05/23 07:51:35;;;;;;;5.97;3.20;;;22.30;99.90;;;;;;10421950;28;20217;-75
2023/05/23 07:56:56;;;;;;;4.55;2.78;;;22.90;99.90;;;;;;10390410;28;20193;-78
2023/05/23 08:02:19;;;;;;;4.38;3.35;;;23.70;99.90;;;;;;10411294;28;20561;-77
2023/05/23 08:07:40;;;;;;;12.30;3.00;;;23.70;99.90;;;;;;10385233;28;20269;-85
2023/05/23 08:13:05;;;;;;;7.03;3.97;;;24.30;99.90;;;;;;10392901;28;20417;-76
2023/05/23 08:18:35;;;;;;;5.53;3.57;;;24.60;99.90;;;;;;10428182;28;20512;-85
2023/05/23 08:23:57;;;;;;;5.68;4.13;;;24.70;99.90;;;;;;10438839;28;20243;-84
2023/05/23 08:29:18;;;;;;;10.38;5.80;;;24.70;99.90;;;;;;10432660;28;20406;-81
2023/05/23 08:34:40;;;;;;;4.32;3.25;;;24.50;99.90;;;;;;10396581;28;20271;-82
2023/05/23 08:40:02;;;;;;;4.40;2.90;;;24.70;99.90;;;;;;10419653;28;20873;-82
2023/05/23 08:45:38;;;;;;;5.20;3.20;;;25.10;1.00;;;;;;10457074;28;20204;-85
2023/05/23 08:51:01;;;;;;;8.18;2.58;;;25.40;1.00;;;;;;10432462;28;20209;-79
2023/05/23 08:56:24;;;;;;;6.10;2.90;;;25.70;1.00;;;;;;10383627;23;20231;-78
2023/05/23 09:01:47;;;;;;;5.20;3.00;;;25.70;1.00;;;;;;10301724;28;20322;-85
2023/05/23 09:07:11;;;;;;;3.78;2.63;;;25.90;1.00;;;;;;10291787;28;20595;-85
2023/05/23 09:12:35;;;;;;;7.63;3.08;;;26.40;99.90;;;;;;10271405;28;20278;-78
2023/05/23 09:18:01;;;;;;;4.90;2.78;;;26.90;99.90;;;;;;10284027;28;20203;-82
2023/05/23 09:23:24;;;;;;;7.68;3.22;;;26.80;99.90;;;;;;10281592;28;20410;-81
2023/05/23 09:28:45;;;;;;;13.02;2.90;;;26.90;99.90;;;;;;10272383;29;20226;-78
2023/05/23 09:34:33;;;;;;;8.70;3.20;;;26.80;1.00;;;;;;10288784;28;20234;-77
2023/05/23 09:39:54;;;;;;;5.68;3.88;;;26.90;1.00;;;;;;10312463;28;20238;-79
2023/05/23 09:45:16;;;;;;;4.25;3.03;;;27.00;1.00;;;;;;10369163;28;20210;-79
2023/05/23 09:50:38;;;;;;;7.28;3.50;;;27.10;1.00;;;;;;10355000;28;20198;-78
2023/05/23 09:56:01;;;;;;;2.90;2.63;;;27.20;1.00;;;;;;10284601;28;20246;-76
2023/05/23 10:01:24;;;;;;;5.90;3.10;;;27.10;1.00;;;;;;10298042;28;20257;-77
2023/05/23 10:07:00;;;;;;;17.02;3.13;;;26.20;1.00;;;;;;10272982;29;20203;-87
2023/05/23 10:12:46;;;;;;;3.72;2.80;;;26.50;1.00;;;;;;10311995;28;20261;-77
2023/05/23 10:18:20;;;;;;;4.40;2.90;;;26.40;99.90;;;;;;10310182;28;20200;-76
2023/05/23 10:23:43;;;;;;;3.47;2.97;;;25.60;99.90;;;;;;10342937;28;20201;-76
2023/05/23 10:29:06;;;;;;;5.28;2.67;;;25.70;99.90;;;;;;10350822;28;20206;-76
2023/05/23 10:34:30;;;;;;;3.33;2.33;;;25.70;99.90;;;;;;10345402;28;20230;-77
2023/05/23 10:40:06;;;;;;;3.78;2.60;;;26.00;1.00;;;;;;10290989;28;20216;-82
2023/05/23 10:45:27;;;;;;;3.25;2.75;;;25.50;1.00;;;;;;10367301;28;20260;-78
2023/05/23 10:51:03;;;;;;;6.30;2.80;;;25.00;1.00;;;;;;10338537;28;20277;-76
2023/05/23 10:56:30;;;;;;;4.47;2.90;;;24.50;99.90;;;;;;10269875;29;20523;-78
2023/05/23 11:01:51;;;;;;;3.30;2.63;;;24.50;99.90;;;;;;10311035;28;20214;-79
2023/05/23 11:07:31;;;;;;;5.38;3.05;;;24.50;99.90;;;;;;10298064;28;20211;-81
2023/05/23 11:13:06;;;;;;;5.85;2.53;;;24.60;99.90;;;;;;10311925;28;20540;-78
2023/05/23 11:18:27;;;;;;;5.13;2.60;;;24.70;99.90;;;;;;10311714;28;20195;-90
2023/05/23 11:23:54;;;;;;;4.03;2.50;;;24.70;99.90;;;;;;10275255;28;20214;-79
2023/05/23 11:29:15;;;;;;;3.60;2.53;;;24.30;99.90;;;;;;10269822;28;20187;-83
2023/05/23 11:34:40;;;;;;;5.20;2.75;;;24.30;1.00;;;;;;10269640;28;20266;-77
2023/05/23 11:40:27;;;;;;;4.22;3.08;;;24.90;99.90;;;;;;10268019;28;20198;-77
2023/05/23 11:45:48;;;;;;;4.82;2.90;;;24.30;1.00;;;;;;10321393;28;20293;-79
2023/05/23 11:51:09;;;;;;;4.40;2.70;;;23.90;99.90;;;;;;10290514;28;20197;-81
2023/05/23 11:56:31;;;;;;;2.65;2.22;;;23.70;99.90;;;;;;10343673;28;20309;-78
2023/05/23 12:01:52;;;;;;;2.80;2.35;;;23.70;1.00;;;;;;10323380;28;20209;-80
2023/05/23 12:07:13;;;;;;;3.90;2.25;;;23.70;1.00;;;;;;10301405;28;20205;-79
2023/05/23 12:12:34;;;;;;;4.13;2.63;;;23.60;1.00;;;;;;10317328;28;20225;-82
2023/05/23 12:17:55;;;;;;;6.93;2.90;;;23.60;99.90;;;;;;10274741;28;20281;-87
2023/05/23 12:23:24;;;;;;;3.53;2.67;;;23.60;99.90;;;;;;10288948;28;20221;-86
2023/05/23 12:28:44;;;;;;;4.43;2.85;;;23.40;99.90;;;;;;10321176;28;20265;-80
2023/05/23 12:34:06;;;;;;;5.60;2.70;;;23.60;99.90;;;;;;10315277;28;20229;-80
2023/05/23 12:39:27;;;;;;;4.50;2.78;;;24.10;99.90;;;;;;10329660;28;20226;-83
2023/05/23 12:44:51;;;;;;;9.82;3.10;;;24.70;99.90;;;;;;10315631;28;20202;-83
2023/05/23 12:50:12;;;;;;;6.97;3.28;;;24.60;1.00;;;;;;10314029;28;20209;-86
2023/05/23 12:55:33;;;;;;;4.40;2.40;;;24.00;1.00;;;;;;10353372;28;20574;-84
2023/05/23 13:00:54;;;;;;;3.60;2.60;;;23.80;1.00;;;;;;10331387;28;20536;-82
2023/05/23 13:06:15;;;;;;;3.00;2.47;;;23.50;1.00;;;;;;10319682;28;20217;-83
2023/05/23 13:11:37;;;;;;;5.45;3.03;;;23.60;1.00;;;;;;10274478;28;20199;-85
2023/05/23 13:16:58;;;;;;;4.38;2.80;;;23.50;99.90;;;;;;10280984;28;20476;-89
2023/05/23 13:22:20;;;;;;;4.45;2.72;;;23.50;99.90;;;;;;10316601;28;20218;-79
2023/05/23 13:27:41;;;;;;;4.78;2.83;;;23.40;99.90;;;;;;10328119;28;20187;-79
2023/05/23 13:33:03;;;;;;;6.35;3.35;;;23.30;99.90;;;;;;10282210;28;20292;-86
2023/05/23 13:38:26;;;;;;;7.43;2.72;;;23.10;99.90;;;;;;10292171;28;20203;-76
2023/05/23 13:43:47;;;;;;;8.20;3.47;;;22.90;99.90;;;;;;10321436;28;20284;-75
2023/05/23 13:49:09;;;;;;;4.03;2.88;;;22.90;99.90;;;;;;10323800;28;21445;-76
2023/05/23 13:54:30;;;;;;;4.97;2.70;;;22.90;99.90;;;;;;10331759;28;20332;-78
2023/05/23 13:59:51;;;;;;;4.18;2.90;;;23.00;99.90;;;;;;10308372;28;20489;-79
2023/05/23 14:05:12;;;;;;;8.32;3.47;;;23.00;99.90;;;;;;10328437;28;20288;-78
2023/05/23 14:10:33;;;;;;;8.68;3.65;;;22.90;1.00;;;;;;10313670;28;20198;-80
2023/05/23 14:15:54;;;;;;;3.97;2.80;;;23.00;99.90;;;;;;10324369;28;20281;-79
2023/05/23 14:21:15;;;;;;;7.60;3.95;;;23.10;1.00;;;;;;10308605;28;20432;-82
2023/05/23 14:26:36;;;;;;;3.83;3.13;;;23.10;99.90;;;;;;10322592;28;20594;-80
2023/05/23 14:31:59;;;;;;;4.32;3.13;;;23.10;99.90;;;;;;10307457;28;20762;-81
2023/05/23 14:37:20;;;;;;;5.40;2.60;;;23.20;99.90;;;;;;10323738;28;20206;-80
2023/05/23 14:42:41;;;;;;;4.88;2.85;;;23.20;99.90;;;;;;10314411;28;20308;-82
2023/05/23 14:48:03;;;;;;;6.20;3.03;;;23.10;99.90;;;;;;10334255;28;20516;-79
2023/05/23 14:53:26;;;;;;;7.55;3.05;;;23.10;99.90;;;;;;10341592;28;20222;-81
2023/05/23 14:58:47;;;;;;;7.63;2.90;;;23.10;99.90;;;;;;10319896;28;20709;-79
2023/05/23 15:04:08;;;;;;;9.68;2.90;;;23.20;99.90;;;;;;10308262;28;20497;-82
2023/05/23 15:09:30;;;;;;;6.03;3.88;;;23.10;99.90;;;;;;10313337;28;20190;-80
2023/05/23 15:14:51;;;;;;;5.40;2.90;;;23.10;99.90;;;;;;10326950;28;20217;-81
2023/05/23 15:20:12;;;;;;;3.83;2.92;;;23.10;99.90;;;;;;10333815;28;20443;-82
2023/05/23 15:25:33;;;;;;;3.55;2.53;;;23.30;99.90;;;;;;10363347;28;20220;-78
2023/05/23 15:31:07;;;;;;;5.38;2.50;;;23.30;99.90;;;;;;10364198;28;20622;-79
2023/05/23 15:36:28;;;;;;;5.35;3.25;;;23.50;99.90;;;;;;10343116;28;20413;-77
2023/05/23 15:41:49;;;;;;;4.50;3.00;;;23.50;99.90;;;;;;10354961;28;20190;-77
2023/05/23 15:47:10;;;;;;;6.47;3.25;;;23.60;99.90;;;;;;10355105;28;20196;-82
2023/05/23 15:52:31;;;;;;;5.90;2.58;;;23.70;99.90;;;;;;10354687;28;20210;-77
2023/05/23 15:57:51;;;;;;;4.55;2.75;;;23.60;99.90;;;;;;10314078;28;20230;-77
2023/05/23 16:03:12;;;;;;;7.32;3.55;;;23.50;99.90;;;;;;10297948;28;20221;-81
2023/05/23 16:08:33;;;;;;;5.43;3.42;;;23.30;1.00;;;;;;10306163;28;20222;-82
2023/05/23 16:13:55;;;;;;;9.77;3.83;;;23.00;1.00;;;;;;10302802;28;20285;-83
2023/05/23 16:19:16;;;;;;;16.52;5.75;;;22.90;1.00;;;;;;10343416;28;20194;-82
2023/05/23 16:31:32;;;;;;;6.28;3.50;;;22.70;1.00;;;;;;10329301;28;20183;-78
2023/05/23 16:37:18;;;;;;;5.45;3.40;;;22.70;1.00;;;;;;10352743;28;20394;-83
2023/05/23 16:42:39;;;;;;;4.30;2.95;;;22.60;1.00;;;;;;10312736;28;20274;-82
2023/05/23 16:48:01;;;;;;;7.50;3.53;;;22.60;1.00;;;;;;10326552;28;20205;-83
2023/05/23 16:53:22;;;;;;;8.95;4.55;;;22.70;99.90;;;;;;10334402;28;20305;-77
2023/05/23 16:58:43;;;;;;;4.10;2.92;;;22.60;99.90;;;;;;10334972;28;20552;-83
2023/05/23 17:04:04;;;;;;;3.47;2.85;;;22.50;99.90;;;;;;10319534;28;20210;-77
2023/05/23 17:09:25;;;;;;;6.90;3.65;;;22.50;99.90;;;;;;10331151;28;20233;-82
2023/05/23 17:14:47;;;;;;;3.75;3.28;;;22.40;99.90;;;;;;10286556;28;20214;-76
2023/05/23 17:20:09;;;;;;;3.83;3.15;;;22.30;99.90;;;;;;10337873;28;20240;-77
2023/05/23 17:25:30;;;;;;;5.22;3.03;;;22.30;99.90;;;;;;10375575;28;20313;-77
2023/05/23 17:30:52;;;;;;;3.50;2.75;;;22.20;99.90;;;;;;10344959;28;20247;-82
2023/05/23 17:36:13;;;;;;;5.53;3.30;;;22.10;99.90;;;;;;10304697;28;20438;-78
2023/05/23 17:41:35;;;;;;;5.53;3.90;;;22.10;99.90;;;;;;10318485;28;20195;-80
2023/05/23 17:46:56;;;;;;;4.88;4.07;;;21.90;99.90;;;;;;10319215;28;20191;-84
2023/05/23 17:52:17;;;;;;;7.65;4.43;;;21.80;99.90;;;;;;10315244;28;20211;-78
2023/05/23 17:57:38;;;;;;;6.93;3.45;;;21.70;99.90;;;;;;10291536;28;20254;-80
2023/05/23 18:03:01;;;;;;;5.43;4.30;;;21.60;99.90;;;;;;10316205;28;20513;-77
2023/05/23 18:08:22;;;;;;;6.97;4.65;;;21.50;99.90;;;;;;10317193;28;20449;-80
2023/05/23 18:13:43;;;;;;;8.02;5.13;;;21.40;99.90;;;;;;10317602;28;20281;-78
2023/05/23 18:19:04;;;;;;;10.90;6.32;;;21.40;99.90;;;;;;10316228;28;20214;-83
2023/05/23 18:24:25;;;;;;;13.02;7.78;;;21.30;99.90;;;;;;10277842;28;20489;-79
2023/05/23 18:29:47;;;;;;;12.50;7.35;;;21.20;99.90;;;;;;10315805;28;20505;-80
2023/05/23 18:35:08;;;;;;;12.10;7.15;;;21.20;99.90;;;;;;10314689;28;20245;-79
2023/05/23 18:40:30;;;;;;;16.15;6.57;;;21.10;99.90;;;;;;10331327;28;20451;-82
2023/05/23 18:45:51;;;;;;;12.13;6.85;;;21.00;99.90;;;;;;10315159;28;20202;-82
2023/05/23 18:51:12;;;;;;;10.20;7.30;;;20.90;99.90;;;;;;10304907;28;20251;-81
2023/05/23 18:56:35;;;;;;;15.27;7.20;;;20.80;99.90;;;;;;10281908;28;20235;-77
2023/05/23 19:01:58;;;;;;;18.55;11.43;;;20.80;99.90;;;;;;10316903;28;20206;-82
2023/05/23 19:07:18;;;;;;;20.02;10.85;;;20.70;99.90;;;;;;10313748;28;20202;-75
2023/05/23 19:12:39;;;;;;;16.02;8.90;;;20.60;99.90;;;;;;10312302;28;20210;-74
2023/05/23 19:18:01;;;;;;;12.57;7.82;;;20.50;99.90;;;;;;10314749;28;20210;-82
2023/05/23 19:23:22;;;;;;;11.02;7.03;;;20.50;99.90;;;;;;10314770;28;20212;-80
2023/05/23 19:28:42;;;;;;;9.45;5.63;;;20.40;99.90;;;;;;10312750;28;20212;-78
2023/05/23 19:34:06;;;;;;;7.80;5.53;;;20.30;99.90;;;;;;10315275;28;20297;-77
2023/05/23 19:39:27;;;;;;;9.32;6.18;;;20.30;99.90;;;;;;10330135;28;20520;-79
2023/05/23 19:44:49;;;;;;;8.43;5.85;;;20.30;99.90;;;;;;10316088;28;20194;-78
2023/05/23 19:50:13;;;;;;;15.30;7.05;;;20.20;1.00;;;;;;10331816;28;20218;-84
2023/05/23 19:55:34;;;;;;;8.95;6.00;;;20.10;99.90;;;;;;10313546;28;20232;-76
2023/05/23 20:00:56;;;;;;;11.52;6.07;;;20.10;99.90;;;;;;10313459;28;20242;-81
2023/05/23 20:06:17;;;;;;;8.90;5.80;;;20.00;99.90;;;;;;10313796;28;20527;-79
2023/05/23 20:11:38;;;;;;;14.43;8.88;;;19.90;99.90;;;;;;10314844;28;20492;-79
2023/05/23 20:16:59;;;;;;;15.20;10.05;;;19.80;99.90;;;;;;10313282;28;20241;-79
2023/05/23 20:22:20;;;;;;;15.30;10.13;;;19.90;99.90;;;;;;10320179;28;20186;-77
2023/05/23 20:27:41;;;;;;;20.23;11.95;;;19.80;99.90;;;;;;10321225;28;20232;-78
2023/05/23 20:33:02;;;;;;;15.20;9.65;;;19.70;99.90;;;;;;10320818;28;20194;-80
2023/05/23 20:38:25;;;;;;;13.05;8.07;;;19.60;99.90;;;;;;10321207;28;20206;-82
2023/05/23 20:43:47;;;;;;;13.30;7.88;;;19.50;99.90;;;;;;10320117;28;20194;-84
2023/05/23 20:49:09;;;;;;;11.88;6.68;;;19.40;99.90;;;;;;10333845;28;20191;-83
2023/05/23 20:54:34;;;;;;;12.95;6.75;;;19.30;99.90;;;;;;10319467;28;20544;-83
2023/05/23 20:59:55;;;;;;;9.07;6.00;;;19.30;99.90;;;;;;10319635;28;20231;-82
2023/05/23 21:05:16;;;;;;;11.55;6.25;;;19.30;99.90;;;;;;10318860;28;20249;-80
2023/05/23 21:10:37;;;;;;;11.40;6.32;;;19.30;99.90;;;;;;10320133;28;20202;-81
2023/05/23 21:15:58;;;;;;;12.48;7.07;;;19.30;99.90;;;;;;10318968;28;20241;-81
2023/05/23 21:21:19;;;;;;;12.98;7.03;;;19.20;99.90;;;;;;10319632;28;20433;-83
2023/05/23 21:26:40;;;;;;;9.73;6.30;;;19.10;99.90;;;;;;10317883;28;20206;-82
2023/05/23 21:32:01;;;;;;;8.32;5.47;;;19.10;99.90;;;;;;10319154;28;20198;-79
2023/05/23 21:37:23;;;;;;;9.07;5.43;;;19.10;1.00;;;;;;10330370;28;20224;-77
2023/05/23 21:42:44;;;;;;;11.57;7.22;;;19.10;1.00;;;;;;10319311;28;20218;-79
2023/05/23 21:48:05;;;;;;;11.43;6.57;;;19.00;1.00;;;;;;10310178;28;20206;-80
2023/05/23 21:53:26;;;;;;;9.98;5.70;;;18.90;1.00;;;;;;10318309;28;20210;-82
2023/05/23 21:58:47;;;;;;;8.57;5.05;;;18.90;1.00;;;;;;10316959;28;20571;-79
2023/05/23 22:04:08;;;;;;;8.32;5.30;;;18.80;1.00;;;;;;10318133;28;20198;-79
2023/05/23 22:09:30;;;;;;;5.72;4.95;;;18.70;1.00;;;;;;10316051;28;20428;-81
2023/05/23 22:20:13;;;;;;;13.52;5.75;;;18.70;1.00;;;;;;10276771;29;20199;-79
2023/05/23 22:25:37;;;;;;;7.40;5.45;;;18.60;99.90;;;;;;10276526;29;20214;-79
2023/05/23 22:30:58;;;;;;;8.38;5.78;;;18.50;99.90;;;;;;10314901;28;20402;-81
2023/05/23 22:36:20;;;;;;;8.18;5.65;;;18.30;1.00;;;;;;10316302;28;21607;-81
2023/05/23 22:41:42;;;;;;;6.95;5.43;;;18.30;99.90;;;;;;10315989;28;20210;-82
2023/05/23 22:47:03;;;;;;;8.25;5.93;;;18.20;1.00;;;;;;10330961;28;20402;-81
2023/05/23 22:52:25;;;;;;;7.45;5.65;;;18.20;1.00;;;;;;10313771;28;20202;-82
2023/05/23 22:57:45;;;;;;;7.63;5.47;;;18.10;1.00;;;;;;10314892;28;20245;-77
2023/05/23 23:03:07;;;;;;;6.75;4.95;;;18.10;1.00;;;;;;10336801;28;20258;-80
2023/05/23 23:08:28;;;;;;;7.43;5.68;;;18.10;1.00;;;;;;10314802;28;20422;-77
2023/05/23 23:13:49;;;;;;;8.00;5.40;;;18.00;1.00;;;;;;10326560;28;20577;-81
2023/05/23 23:19:11;;;;;;;8.23;6.13;;;17.90;1.00;;;;;;10334158;28;20230;-80
2023/05/23 23:24:32;;;;;;;8.88;5.50;;;17.80;1.00;;;;;;10314398;28;20387;-82
2023/05/23 23:29:53;;;;;;;11.18;6.20;;;17.80;1.00;;;;;;10315966;28;20206;-81
2023/05/23 23:35:14;;;;;;;11.98;6.25;;;17.70;1.00;;;;;;10336229;28;20228;-79
2023/05/23 23:40:35;;;;;;;9.85;6.65;;;17.60;99.90;;;;;;10315334;28;20194;-77
2023/05/23 23:45:56;;;;;;;8.13;5.38;;;17.50;99.90;;;;;;10314349;28;20202;-81
2023/05/23 23:51:17;;;;;;;10.50;5.68;;;17.50;99.90;;;;;;10304931;28;20199;-78
2023/05/23 23:56:38;;;;;;;11.57;6.55;;;17.50;1.00;;;;;;10285501;28;20233;-82
